Time;durP1;ratioP1;P1;durP2;ratioP2;P2;SDS_P1;SDS_P2;PMS_P1;PMS_P2;Temp;Humidity;BMP_temperature;BMP_pressure;BME280_temperature;BME280_humidity;BME280_pressure;Samples;Min_cycle;Max_cycle;Signal;HPM_P1;HPM_P2
2021/08/17 00:01:46;;;;;;;9.85;1.98;;;14.20;99.90;;;;;;5064497;28;20447;-77
2021/08/17 00:04:12;;;;;;;3.95;1.40;;;14.10;99.90;;;;;;5057968;28;20021;-78
2021/08/17 00:06:38;;;;;;;7.88;2.30;;;14.10;99.90;;;;;;5055298;28;20051;-76
2021/08/17 00:09:03;;;;;;;7.57;1.77;;;14.10;99.90;;;;;;5059225;28;20036;-76
2021/08/17 00:11:29;;;;;;;12.20;1.92;;;14.00;99.90;;;;;;5058147;28;20032;-76
2021/08/17 00:13:56;;;;;;;11.45;1.77;;;14.00;99.90;;;;;;5058125;28;20547;-79
2021/08/17 00:16:21;;;;;;;7.03;2.33;;;14.00;99.90;;;;;;5057679;28;20029;-79
2021/08/17 00:18:47;;;;;;;11.02;1.55;;;14.00;99.90;;;;;;5056110;28;20306;-79
2021/08/17 00:21:14;;;;;;;9.82;2.22;;;14.00;99.90;;;;;;5056734;28;20033;-78
2021/08/17 00:23:40;;;;;;;5.67;1.60;;;14.00;99.90;;;;;;5052635;28;20025;-76
2021/08/17 00:26:06;;;;;;;10.95;2.42;;;13.90;99.90;;;;;;5051277;28;20095;-76
2021/08/17 00:28:31;;;;;;;5.90;2.13;;;14.00;99.90;;;;;;5053977;28;20029;-77
2021/08/17 00:30:57;;;;;;;5.45;1.70;;;13.90;99.90;;;;;;5053666;28;20044;-77
2021/08/17 00:33:23;;;;;;;12.15;2.38;;;13.90;99.90;;;;;;5054870;28;20029;-77
2021/08/17 00:35:48;;;;;;;16.30;2.33;;;13.80;99.90;;;;;;5054111;28;20021;-76
2021/08/17 00:38:14;;;;;;;12.82;2.72;;;13.80;99.90;;;;;;5055063;28;20070;-77
2021/08/17 00:40:39;;;;;;;4.55;1.73;;;13.80;99.90;;;;;;5053212;28;20017;-77
2021/08/17 00:43:08;;;;;;;12.88;2.08;;;13.70;99.90;;;;;;5056270;28;20041;-77
2021/08/17 00:45:34;;;;;;;9.07;1.85;;;13.70;99.90;;;;;;5050088;28;20507;-76
2021/08/17 00:47:59;;;;;;;12.02;1.98;;;13.70;99.90;;;;;;5053694;28;20107;-76
2021/08/17 00:50:27;;;;;;;4.28;1.55;;;13.70;99.90;;;;;;5054115;28;20051;-77
2021/08/17 00:52:53;;;;;;;9.40;2.30;;;13.60;99.90;;;;;;5051987;28;20024;-77
2021/08/17 00:55:20;;;;;;;11.18;1.80;;;13.60;99.90;;;;;;5069447;28;20450;-77
2021/08/17 00:57:46;;;;;;;9.02;2.10;;;13.60;99.90;;;;;;5054175;28;20029;-77
2021/08/17 01:00:12;;;;;;;6.95;2.25;;;13.50;99.90;;;;;;5054636;28;20531;-77
2021/08/17 01:02:38;;;;;;;11.77;2.63;;;13.50;99.90;;;;;;5045810;28;20103;-77
2021/08/17 01:05:05;;;;;;;5.72;1.80;;;13.50;99.90;;;;;;5052894;28;20424;-77
2021/08/17 01:07:31;;;;;;;8.90;1.80;;;13.50;99.90;;;;;;5069232;28;20051;-77
2021/08/17 01:09:56;;;;;;;10.95;2.70;;;13.50;99.90;;;;;;5052820;28;20386;-78
2021/08/17 01:12:22;;;;;;;10.13;2.60;;;13.50;99.90;;;;;;5054113;28;20025;-78
2021/08/17 01:14:48;;;;;;;6.25;1.90;;;13.40;99.90;;;;;;5053770;28;20064;-78
2021/08/17 01:17:18;;;;;;;14.95;2.30;;;13.40;99.90;;;;;;5052693;28;20115;-78
2021/08/17 01:19:45;;;;;;;7.28;1.90;;;13.40;99.90;;;;;;5053455;28;20033;-78
2021/08/17 01:22:12;;;;;;;4.43;1.85;;;13.40;99.90;;;;;;5068732;28;20420;-78
2021/08/17 01:24:37;;;;;;;7.03;2.22;;;13.30;99.90;;;;;;5053460;28;20033;-78
2021/08/17 01:27:03;;;;;;;5.00;1.90;;;13.30;99.90;;;;;;5068823;28;20021;-78
2021/08/17 01:29:29;;;;;;;9.80;2.33;;;13.30;99.90;;;;;;5053229;28;20709;-77
2021/08/17 01:31:56;;;;;;;5.63;1.60;;;13.30;99.90;;;;;;5053571;28;20025;-78
2021/08/17 01:34:23;;;;;;;7.57;2.58;;;13.30;99.90;;;;;;5068237;28;20033;-78
2021/08/17 01:36:48;;;;;;;8.57;1.40;;;13.30;99.90;;;;;;5052463;28;20025;-78
2021/08/17 01:39:15;;;;;;;4.55;1.80;;;13.20;99.90;;;;;;5053166;28;20039;-78
2021/08/17 01:41:41;;;;;;;6.33;2.10;;;13.20;99.90;;;;;;5051980;28;20032;-78
2021/08/17 01:44:12;;;;;;;7.80;1.58;;;13.20;99.90;;;;;;5052905;28;20028;-78
2021/08/17 01:46:39;;;;;;;3.88;1.58;;;13.20;99.90;;;;;;5051233;28;20512;-78
2021/08/17 01:49:05;;;;;;;5.90;2.28;;;13.20;99.90;;;;;;5054347;28;20024;-78
2021/08/17 01:51:31;;;;;;;3.25;1.63;;;13.20;99.90;;;;;;5052257;28;20021;-78
2021/08/17 01:53:56;;;;;;;7.68;2.25;;;13.20;99.90;;;;;;5069174;28;20035;-78
2021/08/17 01:56:22;;;;;;;5.32;1.83;;;13.30;99.90;;;;;;5052976;28;20040;-77
2021/08/17 01:58:48;;;;;;;8.80;2.72;;;13.30;99.90;;;;;;5053689;28;20109;-78
2021/08/17 02:01:14;;;;;;;6.90;2.00;;;13.30;99.90;;;;;;5053781;28;20085;-78
2021/08/17 02:03:40;;;;;;;6.88;2.50;;;13.30;99.90;;;;;;5052835;28;20394;-78
2021/08/17 02:06:07;;;;;;;3.65;1.73;;;13.30;99.90;;;;;;5051963;28;20041;-78
2021/08/17 02:08:33;;;;;;;5.93;2.33;;;13.30;99.90;;;;;;5053571;28;20074;-78
2021/08/17 02:10:58;;;;;;;9.20;2.67;;;13.30;99.90;;;;;;5068723;28;20436;-78
2021/08/17 02:13:24;;;;;;;5.88;2.25;;;13.30;99.90;;;;;;5052883;28;20052;-78
2021/08/17 02:15:51;;;;;;;12.70;3.05;;;13.40;99.90;;;;;;5068780;28;20108;-78
2021/08/17 02:18:17;;;;;;;8.75;1.98;;;13.40;99.90;;;;;;5053740;28;20029;-77
2021/08/17 02:20:43;;;;;;;4.97;3.35;;;13.40;99.90;;;;;;5052000;28;20025;-78
2021/08/17 02:23:09;;;;;;;5.97;1.70;;;13.40;99.90;;;;;;5053208;28;20032;-78
2021/08/17 02:25:35;;;;;;;8.10;1.73;;;13.40;99.90;;;;;;5052721;28;20033;-78
2021/08/17 02:28:00;;;;;;;11.30;2.20;;;13.50;99.90;;;;;;5052067;28;20108;-78
2021/08/17 02:30:27;;;;;;;10.50;1.98;;;13.50;99.90;;;;;;5068394;28;20703;-78
2021/08/17 02:32:52;;;;;;;4.55;2.22;;;13.60;99.90;;;;;;5053253;28;20087;-78
2021/08/17 02:35:18;;;;;;;5.80;2.38;;;13.60;99.90;;;;;;5051619;28;20036;-78
2021/08/17 02:37:44;;;;;;;3.80;1.73;;;13.70;99.90;;;;;;5052009;28;20027;-78
2021/08/17 02:40:10;;;;;;;6.97;2.28;;;13.70;99.90;;;;;;5052370;28;20068;-78
2021/08/17 02:42:37;;;;;;;9.05;2.45;;;13.70;99.90;;;;;;5052052;28;20053;-77
2021/08/17 02:45:03;;;;;;;4.38;1.83;;;13.80;99.90;;;;;;5051537;28;20124;-78
2021/08/17 02:47:29;;;;;;;7.57;2.30;;;13.80;99.90;;;;;;5053305;28;20033;-78
2021/08/17 02:49:54;;;;;;;13.65;2.20;;;13.80;99.90;;;;;;5053403;28;20075;-78
2021/08/17 02:52:20;;;;;;;5.22;1.77;;;13.80;99.90;;;;;;5052378;28;20067;-78
2021/08/17 02:54:46;;;;;;;4.18;2.33;;;13.90;99.90;;;;;;5052777;28;20028;-77
2021/08/17 02:57:12;;;;;;;9.10;2.08;;;13.90;99.90;;;;;;5051521;28;20516;-78
2021/08/17 02:59:37;;;;;;;5.72;1.90;;;13.90;99.90;;;;;;5051839;28;20052;-78
2021/08/17 03:02:03;;;;;;;4.45;2.10;;;14.00;99.90;;;;;;5050802;28;20025;-78
2021/08/17 03:04:29;;;;;;;7.55;2.25;;;14.00;99.90;;;;;;5052381;28;20040;-78
2021/08/17 03:06:56;;;;;;;5.38;1.75;;;14.00;99.90;;;;;;5052185;28;20393;-78
2021/08/17 03:09:22;;;;;;;8.18;2.13;;;13.90;99.90;;;;;;5051896;28;20024;-77
2021/08/17 03:11:47;;;;;;;10.00;2.10;;;14.00;99.90;;;;;;5051759;28;20032;-77
2021/08/17 03:14:14;;;;;;;8.85;2.15;;;14.00;99.90;;;;;;5068064;28;20115;-78
2021/08/17 03:16:40;;;;;;;14.38;2.60;;;13.90;99.90;;;;;;5052335;28;20025;-78
2021/08/17 03:19:06;;;;;;;20.58;3.30;;;14.00;99.90;;;;;;5069359;28;20020;-78
2021/08/17 03:21:33;;;;;;;10.00;1.92;;;14.00;99.90;;;;;;5054599;28;20052;-78
2021/08/17 03:23:59;;;;;;;7.82;2.10;;;14.00;99.90;;;;;;5072528;28;20033;-78
2021/08/17 03:26:25;;;;;;;8.40;2.28;;;14.00;99.90;;;;;;5075727;28;20013;-78
2021/08/17 03:28:50;;;;;;;6.60;1.85;;;14.00;99.90;;;;;;5061638;28;20021;-78
2021/08/17 03:31:16;;;;;;;8.60;2.33;;;14.10;99.90;;;;;;5060811;28;20036;-78
2021/08/17 03:33:42;;;;;;;7.68;2.25;;;14.00;99.90;;;;;;5061334;28;20031;-78
2021/08/17 03:36:08;;;;;;;3.03;1.88;;;14.10;99.90;;;;;;5063059;28;20021;-78
2021/08/17 03:38:34;;;;;;;5.85;3.00;;;14.10;99.90;;;;;;5062690;28;20099;-78
2021/08/17 03:41:00;;;;;;;5.88;2.15;;;14.10;99.90;;;;;;5061369;28;20111;-77
2021/08/17 03:43:26;;;;;;;8.45;2.10;;;14.10;99.90;;;;;;5080772;28;20017;-77
2021/08/17 03:45:55;;;;;;;5.60;2.15;;;14.10;99.90;;;;;;5069490;28;20019;-77
2021/08/17 03:48:21;;;;;;;4.20;1.88;;;14.00;99.90;;;;;;5087142;28;20021;-77
2021/08/17 03:50:47;;;;;;;5.85;2.10;;;14.10;99.90;;;;;;5088288;28;20033;-77
2021/08/17 03:53:13;;;;;;;8.50;2.22;;;14.10;99.90;;;;;;5089236;28;20025;-78
2021/08/17 03:55:39;;;;;;;7.25;2.78;;;14.00;99.90;;;;;;5073344;28;20032;-77
2021/08/17 03:58:04;;;;;;;5.18;2.00;;;14.00;99.90;;;;;;5072726;28;20039;-77
2021/08/17 04:00:32;;;;;;;4.10;1.80;;;14.00;99.90;;;;;;5072722;28;20024;-78
2021/08/17 04:02:59;;;;;;;3.28;1.83;;;13.90;99.90;;;;;;5088472;28;20031;-75
2021/08/17 04:05:25;;;;;;;4.68;2.25;;;13.90;99.90;;;;;;5079920;28;20132;-77
2021/08/17 04:07:51;;;;;;;4.97;2.20;;;13.90;99.90;;;;;;5057546;28;20551;-77
2021/08/17 04:10:16;;;;;;;5.05;2.50;;;13.90;99.90;;;;;;5056031;28;20067;-78
2021/08/17 04:12:42;;;;;;;4.20;1.92;;;13.80;99.90;;;;;;5055553;28;20017;-77
2021/08/17 04:15:09;;;;;;;4.03;2.30;;;13.80;99.90;;;;;;5055791;28;20112;-78
2021/08/17 04:17:35;;;;;;;5.30;2.15;;;13.80;99.90;;;;;;5056557;28;20029;-78
2021/08/17 04:20:01;;;;;;;4.22;2.10;;;13.80;99.90;;;;;;5055704;28;20156;-78
2021/08/17 04:22:26;;;;;;;6.55;2.50;;;13.80;99.90;;;;;;5054238;28;20057;-77
2021/08/17 04:24:52;;;;;;;3.78;2.30;;;13.80;99.90;;;;;;5054767;28;20033;-78
2021/08/17 04:27:18;;;;;;;10.43;2.22;;;13.80;99.90;;;;;;5053954;28;20029;-78
2021/08/17 04:29:46;;;;;;;6.82;2.33;;;13.80;99.90;;;;;;5056556;28;20033;-78
2021/08/17 04:32:13;;;;;;;8.43;3.90;;;13.80;99.90;;;;;;5056132;28;20056;-77
2021/08/17 04:34:38;;;;;;;4.80;2.45;;;13.80;99.90;;;;;;5053581;28;20047;-77
2021/08/17 04:37:04;;;;;;;9.50;2.88;;;13.90;99.90;;;;;;5051788;28;20127;-77
2021/08/17 04:39:31;;;;;;;7.15;2.67;;;13.90;99.90;;;;;;5053808;28;20021;-77
2021/08/17 04:41:56;;;;;;;6.28;2.25;;;13.90;99.90;;;;;;5051129;28;20438;-77
2021/08/17 04:44:22;;;;;;;9.57;3.47;;;13.90;99.90;;;;;;5051685;28;20114;-77
2021/08/17 04:46:48;;;;;;;14.52;3.50;;;13.90;99.90;;;;;;5053297;28;20052;-77
2021/08/17 04:49:13;;;;;;;4.47;2.88;;;14.00;99.90;;;;;;5068242;28;20021;-76
2021/08/17 04:51:39;;;;;;;7.78;2.83;;;14.00;99.90;;;;;;5054804;28;20052;-76
2021/08/17 04:54:05;;;;;;;9.10;2.70;;;14.00;99.90;;;;;;5053707;28;20078;-77
2021/08/17 04:56:30;;;;;;;9.63;3.60;;;14.00;99.90;;;;;;5066904;28;20389;-77
2021/08/17 04:58:56;;;;;;;4.03;2.70;;;14.10;99.90;;;;;;5051555;28;20021;-77
2021/08/17 05:01:21;;;;;;;6.45;2.85;;;14.10;99.90;;;;;;5053355;28;20043;-77
2021/08/17 05:03:47;;;;;;;9.13;3.88;;;14.20;99.90;;;;;;5054827;28;20032;-77
2021/08/17 05:06:13;;;;;;;9.05;3.10;;;14.30;99.90;;;;;;5054294;28;20126;-78
2021/08/17 05:08:39;;;;;;;12.15;3.65;;;14.30;99.90;;;;;;5052774;28;20109;-78
2021/08/17 05:11:04;;;;;;;10.95;3.83;;;14.30;99.90;;;;;;5053772;28;20027;-78
2021/08/17 05:13:30;;;;;;;6.68;4.00;;;14.40;99.90;;;;;;5052182;28;20100;-78
2021/08/17 05:15:56;;;;;;;9.45;3.35;;;14.40;99.90;;;;;;5053259;28;20051;-77
2021/08/17 05:18:21;;;;;;;6.35;3.10;;;14.50;99.90;;;;;;5053662;28;20036;-77
2021/08/17 05:20:47;;;;;;;8.40;3.35;;;14.50;99.90;;;;;;5053386;28;20059;-78
2021/08/17 05:25:57;;;;;;;13.00;3.78;;;14.50;99.90;;;;;;5053538;28;20048;-78
2021/08/17 05:28:23;;;;;;;9.85;3.97;;;14.60;99.90;;;;;;5053227;28;20025;-77
2021/08/17 05:30:49;;;;;;;15.68;6.03;;;14.60;99.90;;;;;;5053249;28;20048;-78
2021/08/17 05:33:15;;;;;;;12.60;5.20;;;14.70;99.90;;;;;;5068425;28;20539;-77
2021/08/17 05:35:42;;;;;;;14.00;4.22;;;14.70;99.90;;;;;;5052230;28;20025;-77
2021/08/17 05:38:08;;;;;;;13.57;5.55;;;14.80;99.90;;;;;;5063291;28;20558;-76
2021/08/17 05:40:34;;;;;;;11.93;4.15;;;14.80;99.90;;;;;;5052845;28;20111;-77
2021/08/17 05:42:59;;;;;;;14.10;4.53;;;14.80;99.90;;;;;;5050768;28;20040;-77
2021/08/17 05:45:25;;;;;;;11.18;5.20;;;14.90;99.90;;;;;;5052211;28;20040;-77
2021/08/17 05:47:51;;;;;;;9.85;4.53;;;14.90;99.90;;;;;;5051206;28;20060;-77
2021/08/17 05:50:17;;;;;;;14.32;5.43;;;15.00;99.90;;;;;;5052254;28;20389;-77
2021/08/17 05:52:44;;;;;;;11.93;5.05;;;15.00;99.90;;;;;;5050945;28;20033;-77
2021/08/17 05:55:11;;;;;;;12.43;4.93;;;15.10;99.90;;;;;;5051827;28;20037;-77
2021/08/17 05:57:36;;;;;;;13.88;5.13;;;15.10;99.90;;;;;;5052457;28;20499;-77
2021/08/17 06:00:04;;;;;;;12.30;5.72;;;15.10;99.90;;;;;;5052648;28;20108;-77
2021/08/17 06:02:30;;;;;;;15.93;6.45;;;15.10;99.90;;;;;;5051139;28;20550;-77
2021/08/17 06:04:55;;;;;;;14.77;6.43;;;15.10;99.90;;;;;;5052070;28;20132;-78
2021/08/17 06:07:21;;;;;;;13.20;5.88;;;15.20;99.90;;;;;;5053147;28;20107;-77
2021/08/17 06:09:47;;;;;;;15.18;6.80;;;15.20;99.90;;;;;;5051943;28;20470;-78
2021/08/17 06:12:12;;;;;;;18.85;6.50;;;15.30;99.90;;;;;;5049886;28;20032;-77
2021/08/17 06:14:38;;;;;;;14.18;6.97;;;15.30;99.90;;;;;;5051386;28;20061;-78
2021/08/17 06:17:04;;;;;;;19.58;6.10;;;15.40;99.90;;;;;;5050954;28;20037;-78
2021/08/17 06:19:30;;;;;;;14.50;5.80;;;15.30;99.90;;;;;;5052702;28;20028;-78
2021/08/17 06:21:55;;;;;;;11.50;5.57;;;15.30;99.90;;;;;;5052864;28;20427;-78
2021/08/17 06:24:21;;;;;;;21.42;6.40;;;15.40;99.90;;;;;;5067928;28;20045;-78
2021/08/17 06:26:46;;;;;;;14.68;7.40;;;15.40;99.90;;;;;;5052310;28;20021;-78
2021/08/17 06:29:12;;;;;;;16.42;6.35;;;15.40;99.90;;;;;;5053008;28;20052;-78
2021/08/17 06:31:38;;;;;;;17.50;8.50;;;15.40;99.90;;;;;;5052306;28;20088;-79
2021/08/17 06:34:04;;;;;;;14.77;6.93;;;15.50;99.90;;;;;;5067877;28;20033;-78
2021/08/17 06:36:29;;;;;;;22.77;7.05;;;15.50;99.90;;;;;;5048628;28;20040;-78
2021/08/17 06:38:56;;;;;;;16.23;7.43;;;15.60;99.90;;;;;;5051369;28;20040;-78
2021/08/17 06:41:22;;;;;;;20.88;8.02;;;15.70;99.90;;;;;;5052487;28;20525;-78
2021/08/17 06:43:48;;;;;;;21.38;7.80;;;15.70;99.90;;;;;;5052638;28;20120;-78
2021/08/17 06:46:13;;;;;;;19.90;7.88;;;15.70;99.90;;;;;;5052285;28;20032;-78
2021/08/17 06:48:39;;;;;;;25.25;8.38;;;15.70;99.90;;;;;;5051630;28;20040;-78
2021/08/17 06:51:07;;;;;;;22.13;8.43;;;15.80;99.90;;;;;;5051704;28;20520;-77
2021/08/17 06:53:32;;;;;;;18.52;7.43;;;15.80;99.90;;;;;;5067644;28;20032;-78
2021/08/17 06:55:58;;;;;;;27.58;8.05;;;15.90;99.90;;;;;;5049504;28;20465;-78
2021/08/17 06:58:24;;;;;;;21.33;8.00;;;15.90;99.90;;;;;;5051341;28;20164;-79
2021/08/17 07:00:49;;;;;;;27.42;10.32;;;16.00;99.90;;;;;;5052474;28;20033;-78
2021/08/17 07:03:16;;;;;;;22.15;7.93;;;16.10;99.90;;;;;;5047507;28;20036;-78
2021/08/17 07:05:46;;;;;;;18.10;7.82;;;16.20;99.90;;;;;;5052365;28;20467;-79
2021/08/17 07:08:12;;;;;;;21.85;8.13;;;16.30;99.90;;;;;;5067978;28;20017;-79
2021/08/17 07:10:38;;;;;;;23.02;8.63;;;16.40;99.90;;;;;;5052407;28;20056;-78
2021/08/17 07:13:05;;;;;;;21.20;7.65;;;16.50;99.90;;;;;;5054110;28;20025;-79
2021/08/17 07:15:30;;;;;;;21.17;7.57;;;16.50;99.90;;;;;;5051580;28;20428;-78
2021/08/17 07:17:56;;;;;;;20.38;7.15;;;16.60;99.90;;;;;;5048758;28;20021;-79
2021/08/17 07:20:22;;;;;;;19.65;8.25;;;16.70;99.90;;;;;;5051826;28;20385;-78
2021/08/17 07:22:48;;;;;;;28.48;7.90;;;16.80;99.90;;;;;;5055716;28;20451;-79
2021/08/17 07:25:14;;;;;;;26.25;7.70;;;16.80;99.90;;;;;;5058859;28;20032;-79
2021/08/17 07:27:40;;;;;;;20.85;7.75;;;16.80;99.90;;;;;;5061961;28;20029;-79
2021/08/17 07:30:11;;;;;;;17.73;7.80;;;16.80;99.90;;;;;;5074286;28;20083;-79
2021/08/17 07:32:38;;;;;;;19.55;7.47;;;16.80;99.90;;;;;;5060543;28;20037;-76
2021/08/17 07:35:05;;;;;;;17.90;7.43;;;16.80;99.90;;;;;;5053184;28;20440;-77
2021/08/17 07:37:31;;;;;;;18.42;8.23;;;16.80;99.90;;;;;;5065156;28;20291;-79
2021/08/17 07:39:57;;;;;;;17.33;7.40;;;16.90;99.90;;;;;;5062902;28;20025;-78
2021/08/17 07:42:22;;;;;;;13.18;6.20;;;17.00;99.90;;;;;;5079457;28;20040;-78
2021/08/17 07:44:48;;;;;;;15.18;7.07;;;17.10;99.90;;;;;;5068072;28;20029;-77
2021/08/17 07:47:14;;;;;;;18.45;7.22;;;17.20;99.90;;;;;;5067966;28;20093;-77
2021/08/17 07:49:39;;;;;;;20.75;7.20;;;17.40;99.90;;;;;;5081495;28;20021;-76
2021/08/17 07:54:49;;;;;;;27.15;7.22;;;17.50;99.90;;;;;;5056918;28;20043;-75
2021/08/17 07:57:15;;;;;;;17.60;7.18;;;17.50;99.90;;;;;;5071957;28;20005;-76
2021/08/17 07:59:40;;;;;;;18.38;7.22;;;17.40;99.90;;;;;;5069564;28;20088;-77
2021/08/17 08:02:06;;;;;;;19.50;7.30;;;17.40;99.90;;;;;;5065844;28;20029;-74
2021/08/17 08:04:32;;;;;;;15.95;5.95;;;17.40;99.90;;;;;;5050947;28;20069;-75
2021/08/17 08:06:57;;;;;;;21.15;8.00;;;17.30;99.90;;;;;;5060769;28;20444;-76
2021/08/17 08:09:24;;;;;;;25.27;7.43;;;17.30;99.90;;;;;;5061371;28;20449;-75
2021/08/17 08:11:50;;;;;;;17.63;6.50;;;17.40;99.90;;;;;;5050614;28;20029;-76
2021/08/17 08:14:15;;;;;;;17.42;6.40;;;17.40;99.90;;;;;;5048003;28;20064;-76
2021/08/17 08:16:41;;;;;;;21.77;7.18;;;17.50;99.90;;;;;;5059124;28;20029;-76
2021/08/17 08:19:10;;;;;;;12.73;6.97;;;17.50;99.90;;;;;;5052916;28;20108;-76
2021/08/17 08:21:36;;;;;;;12.35;5.38;;;17.50;99.90;;;;;;5070538;28;20489;-76
2021/08/17 08:24:02;;;;;;;13.02;5.68;;;17.60;99.90;;;;;;5064039;28;20416;-77
2021/08/17 08:26:28;;;;;;;14.23;5.72;;;17.60;99.90;;;;;;5076428;28;20096;-76
2021/08/17 08:28:54;;;;;;;11.73;5.05;;;17.70;99.90;;;;;;5071235;28;20063;-76
2021/08/17 08:31:21;;;;;;;14.68;5.55;;;17.80;99.90;;;;;;5059420;28;20071;-76
2021/08/17 08:33:47;;;;;;;14.90;4.80;;;17.80;99.90;;;;;;5071604;28;20028;-77
2021/08/17 08:36:13;;;;;;;9.07;5.35;;;17.80;99.90;;;;;;5063401;28;20029;-77
2021/08/17 08:38:39;;;;;;;11.80;4.43;;;17.90;99.90;;;;;;5056362;28;20027;-75
2021/08/17 08:41:04;;;;;;;14.40;5.07;;;18.00;99.90;;;;;;5059993;28;20039;-76
2021/08/17 08:43:30;;;;;;;12.68;5.18;;;18.00;99.90;;;;;;5090297;28;20017;-74
2021/08/17 08:45:56;;;;;;;12.77;4.45;;;17.90;99.90;;;;;;5062970;28;20546;-75
2021/08/17 08:48:23;;;;;;;12.75;4.70;;;17.50;99.90;;;;;;5054142;28;20032;-74
2021/08/17 08:50:49;;;;;;;11.50;4.37;;;17.30;99.90;;;;;;5049116;28;20071;-75
2021/08/17 08:53:16;;;;;;;12.15;4.93;;;17.10;99.90;;;;;;5051030;28;20044;-74
2021/08/17 08:55:44;;;;;;;10.07;3.83;;;17.20;99.90;;;;;;5051052;28;20071;-74
2021/08/17 08:58:10;;;;;;;11.13;3.90;;;17.20;99.90;;;;;;5049608;28;20025;-74
2021/08/17 09:00:35;;;;;;;8.38;3.42;;;17.30;99.90;;;;;;5059508;28;20029;-75
2021/08/17 09:03:01;;;;;;;20.23;3.80;;;17.40;99.90;;;;;;5056968;28;20075;-74
2021/08/17 09:05:27;;;;;;;16.65;4.60;;;17.40;99.90;;;;;;5046669;28;20055;-74
2021/08/17 09:07:54;;;;;;;5.60;3.47;;;17.30;99.90;;;;;;5051010;28;20509;-74
2021/08/17 09:10:29;;;;;;;6.15;3.33;;;17.30;99.90;;;;;;5051837;28;20350;-74
2021/08/17 09:12:56;;;;;;;7.68;3.42;;;17.40;99.90;;;;;;5054312;28;20024;-74
2021/08/17 09:15:33;;;;;;;10.60;3.00;;;17.40;99.90;;;;;;5050797;28;20033;-75
2021/08/17 09:18:03;;;;;;;5.90;3.13;;;17.40;99.90;;;;;;5052049;28;20047;-75
2021/08/17 09:20:36;;;;;;;11.75;3.22;;;17.50;99.90;;;;;;5053747;28;20389;-75
2021/08/17 09:23:25;;;;;;;8.18;3.67;;;17.40;99.90;;;;;;5053491;28;20380;-75
2021/08/17 09:25:52;;;;;;;6.78;3.47;;;17.40;99.90;;;;;;5058289;28;20036;-75
2021/08/17 09:28:30;;;;;;;11.05;3.72;;;17.30;99.90;;;;;;5055281;28;20100;-75
2021/08/17 09:30:56;;;;;;;;;;;17.30;99.90;;;;;;5051986;28;20053;-75
2021/08/17 09:33:22;;;;;;;12.65;4.15;;;17.30;99.90;;;;;;5063397;28;19915;-75
2021/08/17 09:35:55;;;;;;;10.75;5.28;;;17.40;99.90;;;;;;5057970;28;20024;-75
2021/08/17 09:38:20;;;;;;;6.18;3.20;;;17.40;99.90;;;;;;5051820;28;20032;-75
2021/08/17 09:40:46;;;;;;;7.18;3.60;;;17.40;99.90;;;;;;5052070;28;20472;-75
2021/08/17 09:43:19;;;;;;;11.38;4.10;;;17.30;99.90;;;;;;5054409;28;20051;-75
2021/08/17 09:45:46;;;;;;;8.57;4.68;;;17.40;99.90;;;;;;5053865;28;20386;-75
2021/08/17 09:48:13;;;;;;;6.55;3.70;;;17.40;99.90;;;;;;5053185;28;20111;-76
2021/08/17 09:50:42;;;;;;;6.95;3.38;;;17.30;99.90;;;;;;5052580;28;20021;-75
2021/08/17 09:53:09;;;;;;;5.88;3.00;;;17.30;99.90;;;;;;5049375;28;21453;-76
2021/08/17 09:55:49;;;;;;;13.77;4.13;;;17.20;99.90;;;;;;5052983;28;20063;-76
2021/08/17 09:58:37;;;;;;;9.32;3.53;;;17.20;99.90;;;;;;5051467;28;20029;-76
2021/08/17 10:01:05;;;;;;;8.65;3.03;;;17.20;99.90;;;;;;5053519;28;20060;-76
2021/08/17 10:03:31;;;;;;;5.72;2.90;;;17.20;99.90;;;;;;5060320;28;20036;-76
2021/08/17 10:05:57;;;;;;;8.98;3.83;;;17.30;99.90;;;;;;5046099;28;20079;-76
2021/08/17 10:08:28;;;;;;;6.65;3.45;;;17.40;99.90;;;;;;5050368;28;20040;-76
2021/08/17 10:10:55;;;;;;;7.22;3.13;;;17.40;99.90;;;;;;5053425;28;20100;-76
2021/08/17 10:13:23;;;;;;;9.48;2.85;;;17.50;99.90;;;;;;5056778;28;20036;-76
2021/08/17 10:15:50;;;;;;;6.20;3.05;;;17.50;99.90;;;;;;5059804;28;20078;-76
2021/08/17 10:18:25;;;;;;;6.65;2.97;;;17.40;99.90;;;;;;5055752;28;20032;-77
2021/08/17 10:20:54;;;;;;;6.95;3.53;;;17.40;99.90;;;;;;5052129;28;20028;-77
2021/08/17 10:23:22;;;;;;;7.35;2.83;;;17.50;99.90;;;;;;5053984;28;20041;-77
2021/08/17 10:25:54;;;;;;;9.13;3.75;;;17.50;99.90;;;;;;5053166;28;20025;-76
2021/08/17 10:28:34;;;;;;;8.30;2.85;;;17.50;99.90;;;;;;5050939;28;20029;-76
2021/08/17 10:31:12;;;;;;;7.03;2.88;;;17.50;99.90;;;;;;5051451;28;20017;-76
2021/08/17 10:33:38;;;;;;;;;;;17.50;99.90;;;;;;5050394;28;20044;-76
2021/08/17 10:36:03;;;;;;;7.65;2.90;;;17.50;99.90;;;;;;5070559;28;19919;-76
2021/08/17 10:38:29;;;;;;;11.60;3.22;;;17.40;99.90;;;;;;5050209;28;20037;-77
2021/08/17 10:40:54;;;;;;;5.95;2.72;;;17.40;99.90;;;;;;5052113;28;20021;-76
2021/08/17 10:43:31;;;;;;;7.35;3.33;;;17.40;99.90;;;;;;5055193;28;20040;-76
2021/08/17 10:46:00;;;;;;;6.55;3.22;;;17.30;99.90;;;;;;5051954;28;20044;-76
2021/08/17 10:48:55;;;;;;;7.38;3.40;;;17.00;99.90;;;;;;5062685;28;20170;-76
2021/08/17 10:51:22;;;;;;;7.18;3.60;;;16.70;99.90;;;;;;5045299;28;20380;-76
2021/08/17 10:53:49;;;;;;;;;;;16.60;99.90;;;;;;5060990;28;20033;-76
2021/08/17 10:56:16;;;;;;;5.93;3.78;;;16.50;99.90;;;;;;5052148;28;19962;-76
2021/08/17 10:58:47;;;;;;;8.25;3.40;;;16.40;99.90;;;;;;5067853;28;20028;-76
2021/08/17 11:01:12;;;;;;;8.93;3.53;;;16.40;99.90;;;;;;5061645;28;20020;-76
2021/08/17 11:03:47;;;;;;;7.55;3.10;;;16.40;99.90;;;;;;5051165;28;20507;-76
2021/08/17 11:06:35;;;;;;;6.40;3.20;;;16.40;99.90;;;;;;5045997;28;20051;-76
2021/08/17 11:09:03;;;;;;;9.70;3.00;;;16.30;99.90;;;;;;5052474;28;20021;-76
2021/08/17 11:11:29;;;;;;;8.48;3.03;;;16.30;99.90;;;;;;5051382;28;20045;-76
2021/08/17 11:14:09;;;;;;;3.75;2.90;;;16.30;99.90;;;;;;5071488;28;20027;-76
2021/08/17 11:17:02;;;;;;;5.22;2.97;;;16.30;99.90;;;;;;5045719;28;20025;-76
2021/08/17 11:19:49;;;;;;;3.67;2.58;;;16.20;99.90;;;;;;5048974;28;20477;-75
2021/08/17 11:22:17;;;;;;;6.03;3.20;;;16.10;99.90;;;;;;5059687;28;20074;-75
2021/08/17 11:24:51;;;;;;;7.88;2.70;;;16.10;99.90;;;;;;5051323;28;20374;-75
2021/08/17 11:27:20;;;;;;;5.05;3.40;;;16.20;99.90;;;;;;5052182;28;20013;-75
2021/08/17 11:29:57;;;;;;;6.82;4.43;;;16.10;99.90;;;;;;5052826;28;20376;-75
2021/08/17 11:32:37;;;;;;;10.70;4.00;;;16.10;99.90;;;;;;5067454;28;20021;-74
2021/08/17 11:35:06;;;;;;;6.47;3.10;;;16.10;99.90;;;;;;5069472;28;20274;-75
2021/08/17 11:37:33;;;;;;;7.10;3.28;;;15.90;99.90;;;;;;5072003;28;20076;-76
2021/08/17 11:40:01;;;;;;;7.73;3.57;;;15.90;99.90;;;;;;5074780;28;20366;-76
2021/08/17 11:42:30;;;;;;;8.85;3.78;;;15.80;99.90;;;;;;5074513;28;20266;-76
2021/08/17 11:45:16;;;;;;;8.93;4.40;;;15.80;99.90;;;;;;5078020;28;20013;-76
2021/08/17 11:47:44;;;;;;;4.57;3.38;;;15.70;99.90;;;;;;5074003;28;20013;-74
2021/08/17 11:50:14;;;;;;;7.78;3.10;;;15.70;99.90;;;;;;5061625;28;20563;-76
2021/08/17 11:52:48;;;;;;;7.30;3.60;;;15.70;99.90;;;;;;5057701;28;20029;-76
2021/08/17 11:55:26;;;;;;;4.03;3.30;;;15.70;99.90;;;;;;5060658;28;20051;-75
2021/08/17 11:58:08;;;;;;;6.95;3.90;;;15.70;99.90;;;;;;5056848;28;20104;-75
2021/08/17 12:00:34;;;;;;;9.63;5.05;;;15.70;99.90;;;;;;5056221;28;20103;-74
2021/08/17 12:03:08;;;;;;;5.43;3.85;;;15.70;99.90;;;;;;5056340;28;20040;-75
2021/08/17 12:05:37;;;;;;;4.97;4.03;;;15.70;99.90;;;;;;5050874;28;20044;-74
2021/08/17 12:08:05;;;;;;;8.70;4.35;;;15.80;99.90;;;;;;5054956;28;20096;-74
2021/08/17 12:10:33;;;;;;;9.13;4.30;;;15.70;99.90;;;;;;5051686;28;20033;-74
2021/08/17 12:13:11;;;;;;;8.13;4.30;;;15.70;99.90;;;;;;5051657;28;20104;-74
2021/08/17 12:15:41;;;;;;;10.25;4.05;;;15.70;99.90;;;;;;5053654;28;20040;-74
2021/08/17 12:18:15;;;;;;;8.40;4.18;;;15.70;99.90;;;;;;5048275;28;20029;-75
2021/08/17 12:20:53;;;;;;;6.38;3.70;;;15.80;99.90;;;;;;5051830;28;20075;-74
2021/08/17 12:23:21;;;;;;;;;;;15.80;99.90;;;;;;5050103;28;20032;-75
2021/08/17 12:25:48;;;;;;;8.05;4.63;;;15.90;99.90;;;;;;5061185;28;19913;-76
2021/08/17 12:28:36;;;;;;;10.10;4.38;;;15.90;99.90;;;;;;5053941;28;20354;-76
2021/08/17 12:31:06;;;;;;;8.13;4.63;;;15.90;99.90;;;;;;5051821;28;20024;-75
2021/08/17 12:33:32;;;;;;;6.35;4.63;;;16.00;99.90;;;;;;5047116;28;20075;-77
2021/08/17 12:35:57;;;;;;;8.25;5.05;;;16.00;99.90;;;;;;5053261;28;20024;-74
2021/08/17 12:38:23;;;;;;;7.63;4.72;;;16.10;99.90;;;;;;5053834;28;20040;-73
2021/08/17 12:40:51;;;;;;;8.52;5.55;;;16.10;99.90;;;;;;5066267;28;20053;-73
2021/08/17 12:43:23;;;;;;;7.20;5.43;;;16.10;99.90;;;;;;5050832;28;20108;-73
2021/08/17 12:45:49;;;;;;;8.05;4.88;;;16.00;99.90;;;;;;5048627;28;20118;-74
2021/08/17 12:48:17;;;;;;;7.88;4.80;;;16.00;99.90;;;;;;5051297;28;20025;-76
2021/08/17 12:50:44;;;;;;;6.70;4.35;;;15.90;99.90;;;;;;5050701;28;20373;-75